Time;durP1;ratioP1;P1;durP2;ratioP2;P2;SDS_P1;SDS_P2;PMS_P1;PMS_P2;Temp;Humidity;BMP_temperature;BMP_pressure;BME280_temperature;BME280_humidity;BME280_pressure;Samples;Min_cycle;Max_cycle;Signal;HPM_P1;HPM_P2
2021/08/23 00:01:35;;;;;;;12.52;9.57;;;;;;;17.83;81.15;97280.97;5064269;28;20044;-60
2021/08/23 00:04:02;;;;;;;10.48;9.27;;;;;;;18.13;81.69;97327.97;5064668;28;20088;-65
2021/08/23 00:06:29;;;;;;;11.63;8.98;;;;;;;18.00;81.90;97313.66;5064539;28;20123;-67
2021/08/23 00:08:55;;;;;;;11.35;9.52;;;;;;;17.62;82.19;97258.69;5064020;28;20140;-60
2021/08/23 00:11:22;;;;;;;10.95;9.05;;;;;;;18.09;81.81;97323.19;5080609;28;20058;-67
2021/08/23 00:13:49;;;;;;;12.50;8.63;;;;;;;17.67;81.65;97264.63;5084798;28;20048;-60
2021/08/23 00:16:16;;;;;;;11.27;9.40;;;;;;;18.05;81.56;97321.63;5084648;28;20059;-67
2021/08/23 00:18:44;;;;;;;13.57;9.07;;;;;;;17.81;81.29;97300.19;5084327;28;20628;-66
2021/08/23 00:21:12;;;;;;;13.55;9.38;;;;;;;17.93;81.67;97327.72;5084193;28;20044;-60
2021/08/23 00:23:49;;;;;;;12.05;8.95;;;;;;;17.84;82.28;97327.38;5082375;28;20579;-68
2021/08/23 00:26:20;;;;;;;10.45;8.85;;;;;;;17.81;82.80;97317.00;5084079;28;20079;-60
2021/08/23 00:28:47;;;;;;;10.73;9.05;;;;;;;17.35;82.68;97266.03;5083879;28;20056;-60
2021/08/23 00:31:14;;;;;;;14.75;9.50;;;;;;;17.64;83.02;97295.50;5082541;28;20062;-67
2021/08/23 00:33:41;;;;;;;10.35;9.13;;;;;;;17.74;83.81;97311.44;5082529;28;20100;-60
2021/08/23 00:36:08;;;;;;;12.93;9.82;;;;;;;17.35;83.79;97260.44;5083998;28;20048;-66
2021/08/23 00:38:35;;;;;;;10.65;8.82;;;;;;;17.88;83.64;97309.34;5084160;28;20052;-67
2021/08/23 00:41:01;;;;;;;10.35;8.75;;;;;;;17.50;83.52;97251.56;5083252;28;20074;-67
2021/08/23 00:43:29;;;;;;;12.23;9.57;;;;;;;17.85;84.06;97317.75;5084345;28;20048;-60
2021/08/23 00:45:56;;;;;;;11.00;9.38;;;;;;;17.68;84.36;97311.09;5084234;28;20044;-66
2021/08/23 00:48:23;;;;;;;10.23;8.32;;;;;;;17.47;84.76;97273.97;5083530;28;20052;-60
2021/08/23 00:50:50;;;;;;;11.63;9.07;;;;;;;17.72;85.40;97311.06;5082701;28;20047;-66
2021/08/23 00:53:17;;;;;;;11.77;9.75;;;;;;;17.75;85.59;97313.03;5082740;28;20283;-66
2021/08/23 00:55:44;;;;;;;13.10;9.80;;;;;;;17.55;85.87;97300.75;5084185;28;20075;-66
2021/08/23 00:58:11;;;;;;;11.23;9.05;;;;;;;17.62;85.94;97307.13;5084538;28;20048;-60
2021/08/23 01:17:00;;;;;;;11.20;9.35;;;;;;;18.03;84.27;97294.00;5100496;27;20391;-60
2021/08/23 01:19:29;;;;;;;15.90;10.48;;;;;;;17.96;84.83;97290.44;5099005;28;20593;-67
2021/08/23 01:21:59;;;;;;;11.52;9.55;;;;;;;17.91;85.04;97299.28;5099674;28;20052;-67
2021/08/23 01:24:29;;;;;;;17.88;10.68;;;;;;;17.85;84.90;97287.72;5099413;28;20051;-67
2021/08/23 01:26:58;;;;;;;10.98;9.38;;;;;;;17.71;85.90;97292.63;5097830;28;20056;-60
2021/08/23 01:29:31;;;;;;;11.10;10.00;;;;;;;17.73;85.98;97298.63;5099545;28;20062;-61
2021/08/23 01:32:13;;;;;;;12.80;10.50;;;;;;;17.62;86.91;97297.91;5099391;28;20051;-60
2021/08/23 01:34:40;;;;;;;11.80;10.10;;;;;;;17.55;87.32;97303.53;5100918;28;20047;-60
2021/08/23 01:37:07;;;;;;;12.57;9.75;;;;;;;17.56;87.60;97293.97;5100543;28;20540;-68
2021/08/23 01:39:33;;;;;;;12.95;9.30;;;;;;;17.53;87.94;97292.75;5100910;28;20043;-67
2021/08/23 01:42:00;;;;;;;13.70;10.82;;;;;;;17.55;88.44;97286.75;5100956;28;20051;-60
2021/08/23 01:44:27;;;;;;;12.70;10.13;;;;;;;17.50;88.43;97292.75;5100761;28;20056;-60
2021/08/23 01:46:54;;;;;;;13.95;9.52;;;;;;;17.59;87.60;97293.13;5099712;28;20063;-67
2021/08/23 01:49:20;;;;;;;13.40;9.77;;;;;;;17.55;87.58;97281.13;5100835;28;20526;-68
2021/08/23 01:51:47;;;;;;;14.73;9.77;;;;;;;17.63;87.17;97288.28;5100861;28;20052;-61
2021/08/23 01:54:14;;;;;;;15.18;9.75;;;;;;;17.23;87.05;97230.13;5098817;28;20050;-60
2021/08/23 01:56:42;;;;;;;15.40;10.07;;;;;;;17.58;86.80;97285.91;5100464;28;20059;-66
2021/08/23 01:59:08;;;;;;;12.43;9.10;;;;;;;17.31;87.12;97270.88;5100507;28;20060;-67
2021/08/23 02:01:35;;;;;;;14.00;9.23;;;;;;;17.34;87.73;97286.84;5100047;28;20047;-67
2021/08/23 02:04:02;;;;;;;13.50;10.02;;;;;;;17.25;88.81;97290.09;5098720;28;20056;-67
2021/08/23 02:06:29;;;;;;;15.18;10.05;;;;;;;17.18;88.88;97289.34;5097434;28;20051;-67
2021/08/23 02:08:56;;;;;;;12.07;9.73;;;;;;;17.14;89.17;97294.13;5099779;28;20047;-60
2021/08/23 02:11:24;;;;;;;15.23;9.82;;;;;;;17.06;89.42;97295.38;5098558;28;20052;-61
2021/08/23 02:13:54;;;;;;;12.07;10.02;;;;;;;17.00;90.11;97297.00;5099036;28;20051;-60
2021/08/23 02:16:22;;;;;;;12.85;10.90;;;;;;;16.68;91.00;97254.38;5109284;28;20074;-61
2021/08/23 02:18:49;;;;;;;15.88;11.45;;;;;;;16.59;90.69;97230.41;5105843;28;20316;-66
2021/08/23 02:21:19;;;;;;;12.32;10.18;;;;;;;17.10;90.59;97287.78;5106958;28;20464;-66
2021/08/23 02:23:51;;;;;;;11.70;9.95;;;;;;;17.11;90.29;97306.16;5106916;28;20061;-67
2021/08/23 02:26:17;;;;;;;11.65;9.38;;;;;;;17.10;90.36;97282.16;5106669;28;20051;-61
2021/08/23 02:28:44;;;;;;;13.98;9.82;;;;;;;17.06;90.19;97292.56;5105367;28;20055;-61
2021/08/23 02:31:11;;;;;;;13.57;10.10;;;;;;;17.05;89.87;97291.78;5107133;28;20047;-67
2021/08/23 02:33:38;;;;;;;11.90;9.57;;;;;;;17.01;89.98;97290.22;5106799;28;20066;-68
2021/08/23 02:36:05;;;;;;;12.30;9.85;;;;;;;17.05;89.41;97285.38;5106742;28;20135;-67
2021/08/23 02:38:31;;;;;;;12.90;9.85;;;;;;;17.02;89.37;97286.22;5106350;28;20059;-62
2021/08/23 02:40:58;;;;;;;21.08;10.88;;;;;;;17.09;89.30;97288.97;5106680;28;20051;-66
2021/08/23 02:43:25;;;;;;;11.73;10.48;;;;;;;16.82;88.53;97243.91;5106435;28;20067;-62
2021/08/23 02:45:52;;;;;;;12.68;9.85;;;;;;;17.13;88.31;97290.56;5106197;28;20051;-67
2021/08/23 02:48:18;;;;;;;15.70;11.25;;;;;;;17.18;88.28;97289.34;5105008;28;20528;-61
2021/08/23 02:50:45;;;;;;;13.55;11.50;;;;;;;17.03;88.74;97266.22;5106629;28;20399;-66
2021/08/23 02:53:12;;;;;;;12.10;9.88;;;;;;;17.09;88.74;97280.56;5106880;28;20055;-66
2021/08/23 02:55:38;;;;;;;13.48;10.13;;;;;;;16.83;88.95;97239.09;5106323;28;20500;-65
2021/08/23 02:58:05;;;;;;;12.23;9.68;;;;;;;17.04;88.90;97278.22;5106411;28;20079;-65
2021/08/23 03:00:32;;;;;;;12.02;10.68;;;;;;;17.04;88.68;97273.38;5106172;28;20047;-63
2021/08/23 03:02:59;;;;;;;13.57;10.23;;;;;;;16.98;88.31;97265.81;5106607;28;20067;-66
2021/08/23 03:05:25;;;;;;;11.73;10.00;;;;;;;16.96;88.70;97273.84;5104898;28;20565;-62
2021/08/23 03:07:52;;;;;;;11.18;9.98;;;;;;;17.03;88.51;97279.41;5105930;28;20548;-60
2021/08/23 03:10:19;;;;;;;11.88;9.65;;;;;;;16.96;88.38;97276.63;5106423;28;20138;-66
2021/08/23 03:12:46;;;;;;;12.77;10.15;;;;;;;16.64;88.59;97227.19;5105972;28;20086;-61
2021/08/23 03:15:13;;;;;;;15.57;10.13;;;;;;;16.49;88.22;97213.66;5105387;28;20065;-61
2021/08/23 03:17:39;;;;;;;13.95;10.00;;;;;;;16.92;88.20;97270.25;5105829;28;20043;-61
2021/08/23 03:20:07;;;;;;;19.00;10.05;;;;;;;16.77;88.66;97268.72;5104127;28;20059;-62
2021/08/23 03:22:33;;;;;;;12.52;9.63;;;;;;;16.73;88.48;97267.91;5105553;28;20058;-61
2021/08/23 03:25:00;;;;;;;15.23;10.32;;;;;;;16.45;89.06;97241.63;5105708;28;20043;-67
2021/08/23 03:27:27;;;;;;;11.35;9.63;;;;;;;16.68;89.06;97265.56;5104033;28;20044;-61
2021/08/23 03:29:53;;;;;;;11.70;9.23;;;;;;;16.58;89.65;97273.56;5103621;28;20082;-66
2021/08/23 03:32:21;;;;;;;14.45;9.52;;;;;;;16.50;89.08;97255.19;5105374;28;20051;-61
2021/08/23 03:34:48;;;;;;;12.40;9.45;;;;;;;16.61;89.27;97267.16;5105511;28;20044;-61
2021/08/23 03:37:15;;;;;;;11.15;9.73;;;;;;;16.56;89.11;97266.78;5105384;28;20060;-66
2021/08/23 03:39:42;;;;;;;13.43;9.75;;;;;;;16.50;89.18;97271.97;5103835;28;20055;-62
2021/08/23 03:42:08;;;;;;;11.75;9.35;;;;;;;16.47;89.04;97323.13;5105121;28;20059;-65
2021/08/23 03:44:35;;;;;;;13.27;9.57;;;;;;;16.45;88.72;97274.41;5105612;28;20051;-67
2021/08/23 03:47:02;;;;;;;12.20;9.55;;;;;;;16.48;88.68;97280.00;5103630;28;20055;-67
2021/08/23 03:49:29;;;;;;;12.10;10.18;;;;;;;16.49;89.46;97270.41;5104766;28;20048;-60
2021/08/23 03:51:56;;;;;;;12.98;9.27;;;;;;;16.01;88.28;97221.72;5104643;28;20603;-67
2021/08/23 03:54:22;;;;;;;15.43;9.25;;;;;;;16.49;87.78;97252.81;5104686;28;20051;-61
2021/08/23 03:56:49;;;;;;;11.88;9.02;;;;;;;16.68;86.92;97266.34;5104341;28;20054;-66
2021/08/23 03:59:16;;;;;;;10.88;8.57;;;;;;;16.70;86.91;97274.31;5104485;28;20515;-61
2021/08/23 04:01:42;;;;;;;13.05;8.57;;;;;;;16.82;85.59;97276.69;5103210;28;20047;-66
2021/08/23 04:04:09;;;;;;;11.85;8.95;;;;;;;16.82;85.14;97276.69;5105219;28;20055;-62
2021/08/23 04:06:44;;;;;;;13.52;8.85;;;;;;;16.76;85.42;97289.47;5104346;28;20059;-61
2021/08/23 04:09:13;;;;;;;10.05;8.32;;;;;;;16.78;85.99;97275.91;5103266;28;20054;-61
2021/08/23 04:11:40;;;;;;;12.13;8.38;;;;;;;16.58;85.35;97245.59;5104586;28;20051;-67
2021/08/23 04:14:07;;;;;;;13.35;9.25;;;;;;;16.81;86.25;97275.09;5104504;28;20496;-66
2021/08/23 04:16:34;;;;;;;12.50;8.68;;;;;;;16.97;85.32;97267.03;5103824;28;20064;-67
2021/08/23 04:19:01;;;;;;;14.65;8.98;;;;;;;16.60;84.42;97208.81;5103239;28;20139;-68
2021/08/23 04:21:27;;;;;;;13.77;9.05;;;;;;;17.06;83.53;97278.56;5105098;28;20055;-68
2021/08/23 04:23:54;;;;;;;12.95;9.07;;;;;;;17.10;83.64;97276.56;5104554;28;20143;-61
2021/08/23 04:26:21;;;;;;;16.77;9.40;;;;;;;17.21;83.38;97271.72;5102501;28;20059;-66
2021/08/23 04:28:48;;;;;;;15.52;9.25;;;;;;;17.20;83.86;97281.34;5104573;28;20051;-68
2021/08/23 04:31:14;;;;;;;10.88;8.50;;;;;;;16.87;83.98;97240.69;5102547;28;20063;-67
2021/08/23 04:33:45;;;;;;;12.95;8.27;;;;;;;17.27;84.02;97278.47;5103927;28;20073;-62
2021/08/23 04:36:12;;;;;;;12.80;8.93;;;;;;;16.84;82.93;97215.50;5104235;28;20061;-61
2021/08/23 04:38:39;;;;;;;11.85;9.32;;;;;;;17.31;82.13;97270.88;5104513;28;20055;-61
2021/08/23 04:41:07;;;;;;;14.20;8.20;;;;;;;17.47;81.53;97268.38;5104769;28;20057;-61
2021/08/23 04:43:35;;;;;;;16.23;8.18;;;;;;;17.15;80.51;97211.78;5104502;28;20518;-62
2021/08/23 04:46:01;;;;;;;18.30;8.68;;;;;;;17.74;80.20;97277.81;5104398;28;20051;-61
2021/08/23 04:48:30;;;;;;;13.52;8.57;;;;;;;17.74;80.61;97277.81;5104258;28;20058;-61
2021/08/23 04:50:57;;;;;;;16.63;10.10;;;;;;;17.92;80.22;97275.69;5104088;28;20120;-69
2021/08/23 04:53:24;;;;;;;12.27;8.48;;;;;;;18.13;78.76;97284.69;5104402;28;20153;-61
2021/08/23 04:55:51;;;;;;;13.18;8.85;;;;;;;17.97;78.03;97259.19;5103644;28;20406;-68
2021/08/23 04:58:17;;;;;;;11.55;8.40;;;;;;;18.26;77.89;97282.19;5102680;28;20534;-63
2021/08/23 05:00:44;;;;;;;15.40;8.68;;;;;;;18.28;77.66;97279.75;5102397;28;20063;-68
2021/08/23 05:03:11;;;;;;;15.20;8.18;;;;;;;17.67;77.51;97182.63;5104200;28;20051;-68
2021/08/23 05:05:40;;;;;;;12.80;8.85;;;;;;;18.58;76.72;97276.28;5102607;28;20062;-61
2021/08/23 05:08:08;;;;;;;10.52;8.60;;;;;;;18.63;75.77;97262.59;5103965;28;20083;-61
2021/08/23 05:10:35;;;;;;;11.85;7.93;;;;;;;18.69;74.68;97260.94;5103877;28;20056;-60
2021/08/23 05:13:02;;;;;;;12.00;7.55;;;;;;;18.99;73.78;97277.00;5104207;28;20139;-62
2021/08/23 05:15:29;;;;;;;10.20;7.85;;;;;;;18.90;72.73;97238.22;5102117;28;20148;-62
2021/08/23 05:17:56;;;;;;;9.57;8.10;;;;;;;19.42;71.63;97281.69;5099106;27;20055;-62
2021/08/23 05:20:23;;;;;;;10.93;8.57;;;;;;;19.42;71.73;97283.72;5103992;28;20126;-66
2021/08/23 05:22:49;;;;;;;10.25;8.48;;;;;;;19.62;70.77;97289.47;5102377;28;20052;-61
2021/08/23 05:25:17;;;;;;;9.20;7.93;;;;;;;19.64;70.85;97275.75;5102060;28;20052;-61
2021/08/23 05:27:44;;;;;;;9.48;8.10;;;;;;;19.62;69.97;97284.63;5102158;28;20051;-66
2021/08/23 05:30:11;;;;;;;9.98;7.60;;;;;;;19.79;69.75;97258.25;5103794;28;20052;-61
2021/08/23 05:32:38;;;;;;;9.60;7.97;;;;;;;20.08;68.67;97267.03;5103320;28;20058;-61
2021/08/23 05:35:06;;;;;;;9.52;7.38;;;;;;;20.17;68.36;97261.69;5103635;28;20058;-61
2021/08/23 05:37:33;;;;;;;8.88;7.32;;;;;;;20.40;67.78;97267.31;5102032;28;20509;-60
2021/08/23 05:39:59;;;;;;;10.55;8.10;;;;;;;20.50;67.06;97249.44;5093990;28;20048;-69
2021/08/23 05:42:26;;;;;;;14.00;8.77;;;;;;;20.55;66.60;97232.84;5085886;28;20062;-67
2021/08/23 05:44:54;;;;;;;10.77;7.95;;;;;;;20.32;66.46;97209.56;5082831;28;20062;-67
2021/08/23 05:47:24;;;;;;;10.25;8.38;;;;;;;20.62;65.59;97237.53;5097163;28;20059;-68
2021/08/23 05:49:51;;;;;;;9.95;8.50;;;;;;;20.51;65.49;97200.34;5102713;28;20047;-59
2021/08/23 05:52:18;;;;;;;8.65;7.63;;;;;;;20.64;63.92;97175.97;5104472;28;20051;-71
2021/08/23 05:54:46;;;;;;;16.02;9.10;;;;;;;21.12;64.12;97240.97;5107002;28;20497;-71
2021/08/23 05:57:13;;;;;;;14.95;9.30;;;;;;;21.44;63.72;97263.63;5106107;28;20572;-61
2021/08/23 05:59:40;;;;;;;11.75;8.43;;;;;;;21.73;62.74;97270.22;5101562;28;20575;-62
2021/08/23 06:02:07;;;;;;;13.70;9.07;;;;;;;21.86;62.41;97262.66;5087019;28;20048;-62
2021/08/23 06:04:34;;;;;;;9.50;8.32;;;;;;;22.00;61.89;97267.97;5086802;28;20226;-62
2021/08/23 06:07:01;;;;;;;11.13;8.32;;;;;;;21.83;61.07;97224.06;5086904;28;20138;-59
2021/08/23 06:09:28;;;;;;;12.93;7.90;;;;;;;21.78;60.33;97193.56;5106423;28;20051;-64
2021/08/23 06:11:54;;;;;;;8.40;7.60;;;;;;;22.48;59.44;97264.31;5105709;28;20066;-59
2021/08/23 06:14:21;;;;;;;9.55;7.93;;;;;;;22.67;58.21;97262.66;5107099;28;20054;-68
2021/08/23 06:16:48;;;;;;;12.98;7.70;;;;;;;22.03;58.27;97131.69;5104666;28;20066;-66
2021/08/23 06:19:15;;;;;;;10.52;7.72;;;;;;;22.76;57.48;97257.16;5105086;28;20056;-60
2021/08/23 06:21:41;;;;;;;8.93;7.55;;;;;;;22.94;56.51;97257.44;5105953;28;20048;-66
2021/08/23 06:24:08;;;;;;;8.10;7.30;;;;;;;23.21;55.58;97255.06;5106226;28;20075;-68
2021/08/23 06:26:35;;;;;;;12.88;7.55;;;;;;;23.37;54.18;97249.34;5099850;28;20510;-63
2021/08/23 06:29:02;;;;;;;8.25;7.45;;;;;;;21.31;54.69;96927.34;5106621;28;20048;-73
2021/08/23 06:31:29;;;;;;;8.73;6.93;;;;;;;23.09;54.21;97156.91;5105935;28;20051;-62
2021/08/23 06:33:55;;;;;;;12.77;7.53;;;;;;;23.89;53.50;97261.06;5106705;28;20051;-63
2021/08/23 06:36:22;;;;;;;11.50;7.75;;;;;;;23.96;53.00;97237.41;5106212;28;20055;-69
2021/08/23 06:38:49;;;;;;;14.55;7.80;;;;;;;22.26;53.41;96964.91;5106007;28;20054;-58
2021/08/23 06:41:21;;;;;;;8.63;7.50;;;;;;;24.23;53.39;97258.38;5106120;28;20062;-57
2021/08/23 06:43:48;;;;;;;9.93;8.65;;;;;;;24.48;52.97;97246.97;5105727;28;20047;-59
2021/08/23 06:46:16;;;;;;;8.02;7.22;;;;;;;24.58;52.36;97259.97;5104785;28;20077;-62
2021/08/23 06:48:43;;;;;;;10.82;7.88;;;;;;;24.14;53.61;97254.66;5106755;28;20643;-69
2021/08/23 06:51:11;;;;;;;8.27;7.47;;;;;;;24.31;53.18;97264.56;5104584;28;20055;-73
2021/08/23 06:53:38;;;;;;;10.70;8.48;;;;;;;24.38;52.59;97238.84;5106008;28;20043;-60
2021/08/23 06:56:05;;;;;;;7.85;7.03;;;;;;;24.59;51.12;97241.75;5071878;28;20052;-72
2021/08/23 06:58:32;;;;;;;9.68;8.40;;;;;;;24.45;49.83;97259.22;5085643;28;20048;-74
2021/08/23 07:00:58;;;;;;;9.90;7.93;;;;;;;23.81;51.77;97217.25;5085293;28;20058;-59
2021/08/23 07:03:25;;;;;;;8.90;7.25;;;;;;;24.48;51.32;97252.66;5085652;28;20048;-59
2021/08/23 07:05:52;;;;;;;7.93;7.13;;;;;;;24.84;48.12;97255.03;5085416;28;20048;-63
2021/08/23 07:08:39;;;;;;;11.30;7.70;;;;;;;24.60;49.39;97257.47;5072771;28;20409;-57
2021/08/23 07:11:06;;;;;;;10.05;7.43;;;;;;;24.69;49.46;97273.81;5064667;28;20446;-57
2021/08/23 07:13:32;;;;;;;10.30;7.72;;;;;;;24.72;47.83;97228.34;5065613;28;20052;-70
2021/08/23 07:15:59;;;;;;;10.55;8.07;;;;;;;25.04;47.62;97238.50;5065636;28;20052;-70
2021/08/23 07:18:28;;;;;;;9.02;7.75;;;;;;;25.26;46.59;97257.13;5063577;28;20053;-69
2021/08/23 07:20:54;;;;;;;8.68;7.28;;;;;;;25.42;45.42;97253.31;5064182;28;20052;-57
2021/08/23 07:23:21;;;;;;;6.82;6.13;;;;;;;25.19;42.40;97246.06;5064673;28;20056;-57
2021/08/23 07:25:48;;;;;;;7.55;6.40;;;;;;;25.36;41.81;97208.97;5064376;28;20068;-69
2021/08/23 07:28:15;;;;;;;8.68;7.70;;;;;;;25.78;41.45;97247.06;5063364;28;20450;-60
2021/08/23 07:30:41;;;;;;;9.57;7.28;;;;;;;26.08;42.40;97249.09;5064316;28;20500;-68
2021/08/23 07:33:09;;;;;;;9.30;7.97;;;;;;;25.73;41.57;97241.97;5064297;28;20136;-67
2021/08/23 07:35:35;;;;;;;7.75;7.05;;;;;;;25.20;39.64;97168.22;5077301;28;20052;-69
2021/08/23 07:38:02;;;;;;;7.82;6.97;;;;;;;25.04;40.52;97182.59;5084804;28;20058;-67
2021/08/23 07:40:30;;;;;;;6.68;6.07;;;;;;;25.75;38.92;97236.63;5084581;28;20059;-62
2021/08/23 07:42:57;;;;;;;7.38;6.68;;;;;;;26.12;38.92;97238.38;5084443;28;20051;-70
2021/08/23 07:45:25;;;;;;;8.27;7.18;;;;;;;26.37;38.56;97221.88;5084193;28;20056;-59
2021/08/23 07:47:51;;;;;;;7.63;6.13;;;;;;;25.57;38.80;97162.75;5083013;28;20059;-71
2021/08/23 07:50:19;;;;;;;7.53;6.82;;;;;;;26.25;38.33;97210.66;5082880;28;20067;-71
2021/08/23 07:52:46;;;;;;;7.32;6.63;;;;;;;26.61;37.77;97230.59;5064532;28;20056;-72
2021/08/23 07:55:13;;;;;;;7.22;6.40;;;;;;;26.90;35.31;97224.47;5064181;28;20048;-60
2021/08/23 07:57:44;;;;;;;6.43;5.82;;;;;;;27.14;35.20;97237.56;5064837;28;20079;-72
2021/08/23 08:00:14;;;;;;;6.30;5.70;;;;;;;27.30;34.39;97230.81;5064507;28;20051;-60
2021/08/23 08:02:41;;;;;;;7.07;6.40;;;;;;;27.48;34.33;97236.44;5063959;28;20087;-61
2021/08/23 08:05:09;;;;;;;8.05;6.25;;;;;;;27.66;34.08;97231.50;5063529;28;20422;-60
2021/08/23 08:07:37;;;;;;;6.57;6.00;;;;;;;27.67;33.32;97210.31;5067359;28;20983;-58
2021/08/23 08:10:06;;;;;;;6.60;6.10;;;;;;;27.85;33.64;97227.31;5083633;28;20505;-59
2021/08/23 08:12:33;;;;;;;8.20;6.18;;;;;;;28.02;34.19;97225.72;5083568;28;20143;-60
2021/08/23 08:15:00;;;;;;;7.15;6.45;;;;;;;27.99;34.02;97214.50;5083412;28;20527;-68
2021/08/23 08:17:27;;;;;;;7.32;6.57;;;;;;;28.21;33.99;97231.31;5082961;28;20055;-58
2021/08/23 08:19:54;;;;;;;8.30;6.88;;;;;;;28.26;34.63;97222.09;5083938;28;20455;-71
2021/08/23 08:22:21;;;;;;;8.40;7.45;;;;;;;28.28;35.22;97226.03;5084417;28;20074;-63
2021/08/23 08:24:48;;;;;;;6.78;6.18;;;;;;;27.64;35.40;97205.59;5083120;28;20052;-65
2021/08/23 08:27:15;;;;;;;7.53;6.82;;;;;;;27.38;36.87;97220.69;5083554;28;20054;-68
2021/08/23 08:29:42;;;;;;;8.38;6.45;;;;;;;27.21;35.34;97179.56;5082067;28;20058;-67
2021/08/23 08:32:09;;;;;;;7.28;6.57;;;;;;;27.64;35.09;97177.13;5081647;28;20060;-67
2021/08/23 08:34:36;;;;;;;13.48;8.88;;;;;;;26.15;34.53;96953.44;5083265;28;20052;-63
2021/08/23 08:37:03;;;;;;;6.40;5.90;;;;;;;27.74;33.32;97209.94;5084037;28;20635;-69
2021/08/23 08:39:30;;;;;;;7.80;6.97;;;;;;;27.46;34.28;97210.53;5082980;28;20130;-62
2021/08/23 08:42:00;;;;;;;7.95;7.22;;;;;;;27.88;33.84;97206.44;5086578;28;20052;-66
2021/08/23 08:44:28;;;;;;;7.38;6.32;;;;;;;26.92;34.15;97126.06;5084550;28;20058;-61
2021/08/23 08:46:56;;;;;;;19.25;11.60;;;;;;;27.90;34.11;97206.75;5081935;28;20063;-67
2021/08/23 08:49:23;;;;;;;9.27;6.55;;;;;;;27.99;33.21;97180.31;5083611;28;20047;-64
2021/08/23 08:51:51;;;;;;;7.55;6.85;;;;;;;28.52;32.72;97200.41;5083207;28;20512;-66
2021/08/23 08:54:18;;;;;;;6.53;5.97;;;;;;;28.04;31.71;97194.66;5083453;28;20052;-66
2021/08/23 08:56:45;;;;;;;6.18;5.60;;;;;;;27.62;32.28;97201.63;5082742;28;20158;-63
2021/08/23 08:59:13;;;;;;;5.82;5.32;;;;;;;27.27;32.11;97192.69;5082030;28;20044;-65
2021/08/23 09:01:43;;;;;;;7.63;6.28;;;;;;;27.19;33.55;97093.94;5083155;28;20060;-59
2021/08/23 09:04:10;;;;;;;7.13;6.43;;;;;;;27.91;32.32;97122.91;5083508;28;20056;-59
2021/08/23 09:06:59;;;;;;;6.63;6.00;;;;;;;28.19;31.23;97132.06;5082546;28;20063;-61
2021/08/23 09:09:26;;;;;;;7.72;6.72;;;;;;;27.83;31.68;97120.88;5063340;28;20056;-60
2021/08/23 09:11:57;;;;;;;8.85;6.63;;;;;;;26.86;31.10;96916.81;5063307;28;20041;-65
2021/08/23 09:14:24;;;;;;;6.85;6.15;;;;;;;29.02;30.57;97170.88;5063069;28;20102;-60
2021/08/23 09:16:52;;;;;;;7.20;6.28;;;;;;;28.93;30.68;97123.25;5061261;28;20573;-59
2021/08/23 09:19:24;;;;;;;6.43;5.82;;;;;;;28.55;30.89;97148.16;5063237;28;20098;-67
2021/08/23 09:21:59;;;;;;;10.13;6.60;;;;;;;28.55;32.40;97162.41;5063271;28;20052;-71
2021/08/23 09:24:30;;;;;;;7.88;7.18;;;;;;;28.85;31.28;97161.22;5061597;28;20131;-70
2021/08/23 09:27:05;;;;;;;7.70;6.95;;;;;;;29.07;30.69;97133.91;5064089;28;20052;-59
2021/08/23 09:29:59;;;;;;;9.93;6.00;;;;;;;29.56;30.37;97151.13;5065228;28;20084;-70
2021/08/23 09:32:47;;;;;;;6.65;6.15;;;;;;;28.90;29.80;97112.00;5065105;28;20055;-69
2021/08/23 09:35:36;;;;;;;12.48;9.23;;;;;;;28.80;30.44;97096.28;5076073;28;20052;-70
2021/08/23 09:38:13;;;;;;;8.95;7.50;;;;;;;29.11;30.05;97142.28;5087294;28;20075;-67
2021/08/23 09:40:40;;;;;;;7.00;6.30;;;;;;;29.46;29.92;97143.16;5087888;28;20078;-60
2021/08/23 09:43:12;;;;;;;9.65;7.40;;;;;;;29.63;29.62;97137.72;5090124;28;20425;-60
2021/08/23 09:45:49;;;;;;;6.57;5.88;;;;;;;29.75;29.06;97108.09;5086091;28;20055;-57
2021/08/23 09:48:17;;;;;;;7.30;6.70;;;;;;;30.04;29.26;97097.34;5086903;28;20419;-60
2021/08/23 09:50:46;;;;;;;7.70;5.95;;;;;;;30.49;29.00;97138.78;5086413;28;20051;-63
2021/08/23 09:53:15;;;;;;;6.55;5.95;;;;;;;30.49;28.08;97142.41;5086761;28;20600;-67
2021/08/23 09:55:48;;;;;;;7.45;6.70;;;;;;;30.00;29.18;97139.66;5086809;28;20512;-58
2021/08/23 09:58:15;;;;;;;6.27;5.77;;;;;;;29.14;29.02;97127.03;5086880;28;20570;-66
2021/08/23 10:00:43;;;;;;;7.68;6.97;;;;;;;28.93;29.80;97143.22;5086811;28;20310;-68
2021/08/23 10:03:16;;;;;;;7.72;7.03;;;;;;;27.11;29.45;96820.41;5086690;28;20123;-67
2021/08/23 10:05:45;;;;;;;6.97;6.27;;;;;;;29.06;29.49;97137.22;5086527;28;20048;-66
2021/08/23 10:08:22;;;;;;;9.07;6.60;;;;;;;28.74;30.06;97133.25;5081051;28;20052;-61
2021/08/23 10:10:50;;;;;;;6.10;5.60;;;;;;;28.58;30.29;97138.63;5064218;28;20053;-58
2021/08/23 10:13:17;;;;;;;8.82;6.45;;;;;;;29.10;30.75;97149.28;5066585;28;20098;-65
2021/08/23 10:15:45;;;;;;;7.57;6.20;;;;;;;29.32;30.25;97121.91;5065650;28;20145;-60
2021/08/23 10:18:15;;;;;;;6.72;6.03;;;;;;;29.76;29.53;97126.78;5064826;28;20497;-72
2021/08/23 10:20:41;;;;;;;6.32;5.82;;;;;;;30.17;27.83;97112.09;5066121;28;20048;-68
2021/08/23 10:23:09;;;;;;;6.95;6.25;;;;;;;30.48;27.69;97132.28;5065933;28;20048;-59
2021/08/23 10:25:36;;;;;;;10.35;7.38;;;;;;;30.61;27.84;97124.13;5065895;28;20507;-67
2021/08/23 10:28:16;;;;;;;7.22;6.47;;;;;;;30.87;27.41;97124.97;5064612;28;20052;-62
2021/08/23 10:30:43;;;;;;;7.05;6.45;;;;;;;30.97;27.72;97099.06;5065568;28;20059;-58
2021/08/23 10:33:16;;;;;;;6.13;5.57;;;;;;;31.36;26.15;97117.44;5065412;28;20526;-58
2021/08/23 10:35:53;;;;;;;7.32;6.63;;;;;;;31.70;25.93;97110.66;5063316;28;20056;-59
2021/08/23 10:38:22;;;;;;;6.65;5.95;;;;;;;31.70;25.43;97105.72;5064322;28;20135;-60
2021/08/23 10:41:13;;;;;;;9.50;8.50;;;;;;;30.78;26.56;97098.59;5065730;28;20184;-57
2021/08/23 10:43:50;;;;;;;7.07;6.38;;;;;;;30.09;26.51;97105.22;5066002;28;20059;-73
2021/08/23 10:46:25;;;;;;;8.98;8.07;;;;;;;30.32;26.55;97072.81;5065710;28;20494;-71
2021/08/23 10:48:54;;;;;;;9.77;8.25;;;;;;;31.00;25.54;97103.78;5065948;28;20062;-59
2021/08/23 10:51:36;;;;;;;7.28;5.72;;;;;;;31.08;25.73;97099.19;5065434;28;20048;-58
2021/08/23 10:54:23;;;;;;;7.85;6.97;;;;;;;31.23;25.29;97099.81;5064194;28;20064;-72
2021/08/23 10:56:59;;;;;;;10.07;9.18;;;;;;;30.12;26.73;97097.72;5065290;28;20051;-71
2021/08/23 10:59:44;;;;;;;6.63;6.13;;;;;;;29.17;25.69;96946.25;5063940;28;20044;-71
2021/08/23 11:02:32;;;;;;;7.20;5.90;;;;;;;30.67;25.49;97090.66;5065530;28;20596;-70
2021/08/23 11:05:04;;;;;;;6.72;6.15;;;;;;;30.82;25.96;97079.94;5064806;28;20094;-67
2021/08/23 11:07:33;;;;;;;6.18;5.68;;;;;;;30.30;24.79;97081.13;5063628;28;20060;-58
2021/08/23 11:10:13;;;;;;;11.15;9.23;;;;;;;30.60;25.04;97082.50;5064861;28;21016;-68
2021/08/23 11:12:44;;;;;;;7.07;6.38;;;;;;;30.59;25.21;97075.22;5065405;28;20074;-71
2021/08/23 11:15:27;;;;;;;9.35;7.82;;;;;;;30.86;25.53;97077.63;5069444;28;20048;-72
2021/08/23 11:18:01;;;;;;;7.00;6.40;;;;;;;30.72;24.97;97069.09;5084754;28;20048;-70
2021/08/23 11:20:37;;;;;;;8.02;7.22;;;;;;;31.13;25.28;97061.22;5067529;28;20105;-60
2021/08/23 11:23:08;;;;;;;5.63;5.13;;;;;;;30.81;24.56;97058.31;5065188;28;20056;-58
2021/08/23 11:25:42;;;;;;;6.35;5.85;;;;;;;30.45;25.52;97053.22;5063912;28;20507;-63
2021/08/23 11:28:11;;;;;;;7.70;7.00;;;;;;;30.59;26.24;97052.31;5073141;28;20056;-71
2021/08/23 11:30:46;;;;;;;7.68;6.75;;;;;;;30.87;24.83;97035.50;5079617;28;20067;-61
2021/08/23 11:33:27;;;;;;;6.82;6.22;;;;;;;31.27;25.50;97040.28;5075745;28;20102;-67
2021/08/23 11:35:55;;;;;;;9.10;6.28;;;;;;;31.08;24.76;97019.03;5079417;28;20058;-67
2021/08/23 11:38:30;;;;;;;7.30;6.40;;;;;;;31.45;25.29;96985.50;5074598;28;20522;-63
2021/08/23 11:40:58;;;;;;;6.18;5.68;;;;;;;30.76;24.51;96932.41;5081118;28;20078;-61
2021/08/23 11:43:27;;;;;;;5.40;5.00;;;;;;;31.73;23.95;97043.75;5084761;28;20111;-70
2021/08/23 11:45:54;;;;;;;5.53;5.13;;;;;;;31.97;23.91;97032.72;5083777;28;20054;-67
2021/08/23 11:48:21;;;;;;;6.00;5.45;;;;;;;31.72;23.76;97027.84;5073353;28;20048;-60
2021/08/23 11:50:48;;;;;;;6.20;5.60;;;;;;;31.77;23.93;97027.13;5068362;28;20066;-75
2021/08/23 11:53:16;;;;;;;5.40;4.90;;;;;;;31.86;23.21;97009.72;5071043;28;20040;-60